Airfield :
LOGIN :

Register | Disclaimer

   EN    FR    IT 

 










Legend :    VFR   Marginal VFR   IFR   Intensive IFR   Very Intensive IFR
Visi :
Ceiling :
>= 8 km
>= 3000ft
5 to 8 km
1000 to 3000 ft
1500m to 5 km
500 to 1000 ft
800 to 1500m
200 to 500 ft
< 800m
< 200 ft
Symbols :   Thunderstorms  Fog  Heavy snow  Heavy precipitations  Wind > 20 kt
SIGMETs :     Misc.  Thunderstorms  Icing  Turbulence  Mountain Waves  Volcanic Ashes






- Airport Elevation : 1 ft


EGCK - Caernarfon

CURRENT METAR :
  • 170350Z AUTO 36006KT 9999 OVC008/// 09/08 Q1003

EXPIRED METARs :
  • 170320Z AUTO 36008KT 9999 OVC007/// 09/08 Q1002
  • 170250Z AUTO 35006KT 9999 BKN008/// OVC049/// 09/08 Q1002
  • 170220Z AUTO VRB03KT 9999 OVC006/// 09/08 Q1002
  • 170150Z AUTO VRB01KT 9999 OVC007/// 08/07 Q1001

TAF TAF EGCK
Valid from the 17 at 03:00 until the 17 at 12:00 UTC


170154Z 1703/1712 02004KT 9999 SCT035
PROB30
TEMPO 1703/1706 4000 RADZ BR BKN002
PROB30
TEMPO 1706/1709 6000 SHRA BKN010
TEMPO 1709/1712 6000 SHRA
PROB30
TEMPO 1709/1712 3000 +TSGS BKN014 BKN020CB



MET'MAP, your aeronautical weather chart ! - Copyright ORBIFLY December 2007 - Disclaimer

ORBIFLY MET'MAP TEAM :

Programming & Development : Alexandra Zaïnal
Concept & original design : Baudouin d'Aumeries
Assistance for programming : Marc-Olivier Méhu
Technical & hardware support : Manuel Goepfert

Contact : metmap@orbifly.com




SOURCES & CREDITS :

   NOAA